createdAt,value
2018-04-11T00:01:02.988Z,95947.35
2018-04-11T00:03:31.172Z,95943.63
2018-04-11T00:05:59.320Z,95940.67
2018-04-11T00:08:29.320Z,95940.66
2018-04-11T00:10:57.493Z,95958.44
2018-04-11T00:13:25.676Z,95949.61
2018-04-11T00:16:07.091Z,95942.89
2018-04-11T00:18:35.252Z,95950.56
2018-04-11T00:21:03.431Z,95952.27
2018-04-11T00:23:31.603Z,95956.53
2018-04-11T00:25:59.751Z,95966.69
2018-04-11T00:28:27.953Z,95967.13
2018-04-11T00:30:56.118Z,95971.38
2018-04-11T00:33:24.269Z,95965.06
2018-04-11T00:35:52.430Z,95970.62
2018-04-11T00:38:20.604Z,95968.55
2018-04-11T00:40:49.808Z,95968.97
2018-04-11T00:43:17.965Z,95967.75
2018-04-11T00:45:46.133Z,95976.65
2018-04-11T00:48:15.935Z,95971.16
2018-04-11T00:50:44.092Z,95978.80
2018-04-11T00:53:25.543Z,95982.17
2018-04-11T00:55:53.706Z,95982.17
2018-04-11T00:58:21.862Z,95980.50
2018-04-11T01:00:50.023Z,95981.81
2018-04-11T01:03:18.189Z,95977.20
2018-04-11T01:05:46.336Z,95980.59
2018-04-11T01:08:14.518Z,95980.59
2018-04-11T01:10:42.663Z,95987.34
2018-04-11T01:13:10.829Z,95986.09
2018-04-11T01:15:38.995Z,95984.84
2018-04-11T01:18:07.676Z,95977.23
2018-04-11T01:20:35.886Z,95976.41
2018-04-11T01:23:04.039Z,95979.81
2018-04-11T01:25:32.209Z,95980.23
2018-04-11T01:28:00.390Z,95978.98
2018-04-11T01:30:28.555Z,95982.37
2018-04-11T01:32:56.692Z,95985.31
2018-04-11T01:35:24.864Z,95984.08
2018-04-11T01:37:53.018Z,95980.27
2018-04-11T01:40:21.261Z,95978.60
2018-04-11T01:42:49.414Z,95987.52
2018-04-11T01:47:52.371Z,95988.40
2018-04-11T01:50:24.358Z,95987.56
2018-04-11T01:52:58.859Z,95992.22
2018-04-11T01:55:27.053Z,95990.14
2018-04-11T01:57:55.192Z,95995.20
2018-04-11T02:00:23.337Z,95996.90
2018-04-11T02:02:51.494Z,96004.55
2018-04-11T02:05:19.654Z,96006.67
2018-04-11T02:07:47.878Z,96007.11
2018-04-11T02:10:16.170Z,96008.38
2018-04-11T02:12:44.393Z,96007.53
2018-04-11T02:15:12.635Z,96006.72
2018-04-11T02:17:40.793Z,96001.22
2018-04-11T02:20:08.959Z,96007.13
2018-04-11T02:22:37.098Z,96011.36
2018-04-11T02:25:05.292Z,96008.81
2018-04-11T02:27:33.443Z,96012.20
2018-04-11T02:30:07.941Z,96015.16
2018-04-11T02:32:36.999Z,96016.86
2018-04-11T02:35:05.163Z,96014.77
2018-04-11T02:37:33.324Z,96015.59
2018-04-11T02:40:01.593Z,96013.94
2018-04-11T02:42:29.797Z,96012.25
2018-04-11T02:44:57.965Z,96012.66
2018-04-11T02:47:26.128Z,96015.59
2018-04-11T02:49:54.291Z,96020.67
2018-04-11T02:52:23.726Z,96018.55
2018-04-11T02:54:51.906Z,96012.19
2018-04-11T02:57:20.128Z,96017.27
2018-04-11T02:59:48.294Z,96010.48
2018-04-11T03:02:16.454Z,96005.42
2018-04-11T03:04:44.656Z,96013.03
2018-04-11T03:07:12.835Z,96016.82
2018-04-11T03:09:41.012Z,96016.81
2018-04-11T03:12:09.263Z,96025.26
2018-04-11T03:14:37.422Z,96028.64
2018-04-11T03:17:05.870Z,96021.03
2018-04-11T03:19:34.024Z,96025.69
2018-04-11T03:22:02.219Z,96027.80
2018-04-11T03:27:09.547Z,96024.04
2018-04-11T03:29:37.800Z,96024.45
2018-04-11T03:32:07.030Z,96029.50
2018-04-11T03:34:36.703Z,96032.47
2018-04-11T03:37:04.882Z,96038.79
2018-04-11T03:39:33.050Z,96039.22
2018-04-11T03:42:02.008Z,96035.83
2018-04-11T03:44:30.147Z,96034.12
2018-04-11T03:46:58.318Z,96029.48
2018-04-11T03:49:26.521Z,96036.68
2018-04-11T03:51:54.691Z,96042.19
2018-04-11T03:54:22.859Z,96042.16
2018-04-11T03:56:51.030Z,96034.14
2018-04-11T03:59:19.225Z,96035.79
2018-04-11T04:01:47.492Z,96023.98
2018-04-11T04:04:15.648Z,96023.14
2018-04-11T04:06:43.843Z,96025.70
2018-04-11T04:09:18.209Z,96032.45
2018-04-11T04:11:46.405Z,96041.31
2018-04-11T04:14:26.144Z,96037.09
2018-04-11T04:17:06.167Z,96037.08
2018-04-11T04:22:43.623Z,96029.14
2018-04-11T04:25:12.094Z,96044.41
2018-04-11T04:27:43.176Z,96048.20
2018-04-11T04:30:14.051Z,96050.33
2018-04-11T04:32:44.141Z,96047.78
2018-04-11T04:35:14.989Z,96042.72
2018-04-11T04:37:44.899Z,96038.92
2018-04-11T04:40:13.993Z,96031.31
2018-04-11T04:42:42.285Z,96040.16
2018-04-11T04:45:10.753Z,96008.03
2018-04-11T04:47:41.733Z,96010.60
2018-04-11T04:50:12.752Z,96013.55
2018-04-11T04:52:43.693Z,96027.50
2018-04-11T04:55:13.819Z,96045.22
2018-04-11T04:57:45.353Z,96049.50
2018-04-11T05:00:13.705Z,96048.63
2018-04-11T05:02:43.780Z,96044.41
2018-04-11T05:05:12.950Z,96042.30
2018-04-11T05:07:42.073Z,96048.22
2018-04-11T05:10:11.147Z,96056.23
2018-04-11T05:12:42.196Z,96052.85
2018-04-11T05:15:10.545Z,96051.19
2018-04-11T05:17:40.638Z,96049.92
2018-04-11T05:20:09.207Z,96055.81
2018-04-11T05:22:37.557Z,96058.75
2018-04-11T05:25:08.527Z,96061.70
2018-04-11T05:27:38.608Z,96055.38
2018-04-11T05:30:07.118Z,96059.20
2018-04-11T05:32:36.116Z,96052.02
2018-04-11T05:35:06.139Z,96052.87
2018-04-11T05:37:39.059Z,96048.22
2018-04-11T05:40:09.203Z,96052.45
2018-04-11T05:42:39.237Z,96050.73
2018-04-11T05:45:12.626Z,96059.18
2018-04-11T05:47:42.749Z,96060.03
2018-04-11T05:50:13.217Z,96057.03
2018-04-11T05:52:42.244Z,96056.59
2018-04-11T05:55:14.804Z,96053.20
2018-04-11T05:57:43.188Z,96049.80
2018-04-11T06:00:13.335Z,96044.69
2018-04-11T06:05:36.755Z,96042.92
2018-04-11T06:08:06.812Z,96049.66
2018-04-11T06:10:35.131Z,96045.84
2018-04-11T06:13:05.194Z,96047.89
2018-04-11T06:15:36.158Z,96052.08
2018-04-11T06:18:06.074Z,96051.67
2018-04-11T06:20:35.140Z,96054.59
2018-04-11T06:23:05.279Z,96053.75
2018-04-11T06:25:36.203Z,96051.19
2018-04-11T06:28:05.244Z,96050.30
2018-04-11T06:30:36.072Z,96045.20
2018-04-11T06:33:05.130Z,96048.55
2018-04-11T06:35:33.617Z,96047.24
2018-04-11T06:38:02.814Z,96044.68
2018-04-11T06:40:31.334Z,96046.78
2018-04-11T06:43:01.576Z,96039.98
2018-04-11T06:45:30.615Z,96036.13
2018-04-11T06:48:00.576Z,96033.56
2018-04-11T06:50:30.520Z,96035.67
2018-04-11T06:53:04.731Z,96036.90
2018-04-11T06:55:33.300Z,96031.31
2018-04-11T06:58:01.633Z,96035.06
2018-04-11T07:00:30.022Z,96027.36
2018-04-11T07:02:58.385Z,96026.89
2018-04-11T07:05:31.771Z,96028.09
2018-04-11T07:08:04.722Z,96025.91
2018-04-11T07:10:33.287Z,96027.56
2018-04-11T07:13:03.483Z,96029.65
2018-04-11T07:15:32.605Z,96031.29
2018-04-11T07:18:02.548Z,96033.34
2018-04-11T07:20:32.750Z,96039.20
2018-04-11T07:23:03.852Z,96035.30
2018-04-11T07:25:32.115Z,96037.30
2018-04-11T07:28:00.383Z,96037.19
2018-04-11T07:30:31.369Z,96040.95
2018-04-11T07:32:59.688Z,96040.41
2018-04-11T07:35:28.170Z,96039.83
2018-04-11T07:37:56.729Z,96032.90
2018-04-11T07:40:26.814Z,96038.26
2018-04-11T07:42:55.265Z,96034.79
2018-04-11T07:45:25.342Z,96026.30
2018-04-11T07:47:56.330Z,96036.02
2018-04-11T07:50:25.436Z,96035.02
2018-04-11T07:52:53.741Z,96029.84
2018-04-11T07:55:29.402Z,96033.61
2018-04-11T07:57:59.672Z,96032.63
2018-04-11T08:00:31.046Z,96031.63
2018-04-11T08:03:01.964Z,96031.94
2018-04-11T08:05:30.357Z,96034.52
2018-04-11T08:07:58.658Z,96033.58
2018-04-11T08:10:28.655Z,96040.98
2018-04-11T08:12:57.245Z,96040.77
2018-04-11T08:15:26.247Z,96029.14
2018-04-11T08:17:54.930Z,96029.20
2018-04-11T08:20:26.977Z,96022.80
2018-04-11T08:22:55.279Z,96024.80
2018-04-11T08:25:45.774Z,96022.87
2018-04-11T08:28:15.961Z,96014.66
2018-04-11T08:30:46.051Z,96013.70
2018-04-11T08:33:16.139Z,96017.03
2018-04-11T08:35:50.229Z,96024.02
2018-04-11T08:38:20.323Z,96019.20
2018-04-11T08:40:50.497Z,96016.68
2018-04-11T08:43:19.582Z,96017.06
2018-04-11T08:45:48.701Z,96018.73
2018-04-11T08:48:20.961Z,96015.97
2018-04-11T08:50:51.047Z,96022.13
2018-04-11T08:53:20.192Z,96013.89
2018-04-11T08:55:48.789Z,96020.62
2018-04-11T08:58:30.317Z,96020.47
2018-04-11T09:01:00.384Z,96022.86
2018-04-11T09:03:30.582Z,96027.19
2018-04-11T09:06:00.519Z,96023.63
2018-04-11T09:08:32.164Z,96019.60
2018-04-11T09:11:02.225Z,96016.80
2018-04-11T09:13:33.037Z,96017.32
2018-04-11T09:16:01.312Z,96016.29
2018-04-11T09:18:30.319Z,96020.80
2018-04-11T09:20:59.433Z,96012.97
2018-04-11T09:23:29.421Z,96011.03
2018-04-11T09:25:59.658Z,96014.30
2018-04-11T09:28:30.652Z,96006.80
2018-04-11T09:31:00.875Z,96005.66
2018-04-11T09:33:29.245Z,96008.45
2018-04-11T09:35:59.265Z,96006.56
2018-04-11T09:38:44.599Z,96006.04
2018-04-11T09:41:27.333Z,96008.84
2018-04-11T09:43:57.452Z,96003.23
2018-04-11T09:46:27.560Z,96007.16
2018-04-11T09:48:57.370Z,96003.55
2018-04-11T09:51:27.392Z,95996.65
2018-04-11T09:53:57.424Z,95992.87
2018-04-11T09:56:26.810Z,95991.19
2018-04-11T09:58:56.905Z,95984.63
2018-04-11T10:01:45.183Z,95980.17
2018-04-11T10:04:13.671Z,95983.66
2018-04-11T10:06:42.734Z,95974.16
2018-04-11T10:09:16.559Z,95978.02
2018-04-11T10:11:45.032Z,95976.19
2018-04-11T10:14:13.438Z,95979.70
2018-04-11T10:16:43.420Z,95972.19
2018-04-11T10:19:14.936Z,95979.84
2018-04-11T10:21:45.884Z,95981.91
2018-04-11T10:24:17.872Z,95981.11
2018-04-11T10:26:46.120Z,95976.03
2018-04-11T10:29:19.394Z,95981.89
2018-04-11T10:31:49.418Z,95979.28
2018-04-11T10:34:19.522Z,95974.74
2018-04-11T10:36:49.671Z,95972.72
2018-04-11T10:39:26.957Z,95970.66
2018-04-11T10:41:56.160Z,95961.05
2018-04-11T10:44:26.396Z,95959.00
2018-04-11T10:46:56.406Z,95951.92
2018-04-11T10:49:24.992Z,95956.88
2018-04-11T10:51:54.977Z,95941.23
2018-04-11T10:54:24.930Z,95944.17
2018-04-11T10:56:55.016Z,95941.48
2018-04-11T10:59:23.321Z,95941.59
2018-04-11T11:01:54.356Z,95936.35
2018-04-11T11:04:31.908Z,95930.12
2018-04-11T11:07:03.055Z,95936.30
2018-04-11T11:09:33.206Z,95921.27
2018-04-11T11:12:03.358Z,95926.29
2018-04-11T11:14:33.540Z,95926.34
2018-04-11T11:17:02.688Z,95921.16
2018-04-11T11:19:43.297Z,95917.92
2018-04-11T11:22:13.531Z,95915.09
2018-04-11T11:24:50.142Z,95909.09
2018-04-11T11:27:19.242Z,95906.16
2018-04-11T11:29:49.033Z,95904.12
2018-04-11T11:32:20.084Z,95898.87
2018-04-11T11:34:50.195Z,95892.54
2018-04-11T11:37:31.077Z,95899.31
2018-04-11T11:39:59.537Z,95890.05
2018-04-11T11:42:29.579Z,95892.29
2018-04-11T11:45:03.723Z,95902.55
2018-04-11T11:47:39.920Z,95897.24
2018-04-11T11:50:09.853Z,95892.28
2018-04-11T11:52:38.876Z,95891.88
2018-04-11T11:55:10.241Z,95889.44
2018-04-11T11:57:40.362Z,95888.92
2018-04-11T12:00:10.426Z,95891.68
2018-04-11T12:02:44.683Z,95886.19
2018-04-11T12:05:12.978Z,95882.44
2018-04-11T12:07:41.339Z,95878.89
2018-04-11T12:10:12.281Z,95889.59
2018-04-11T12:12:47.770Z,95882.39
2018-04-11T12:15:16.112Z,95888.27
2018-04-11T12:17:44.494Z,95881.23
2018-04-11T12:20:14.437Z,95878.30
2018-04-11T12:22:46.093Z,95872.00
2018-04-11T12:25:16.653Z,95871.59
2018-04-11T12:27:45.090Z,95863.88
2018-04-11T12:30:13.486Z,95864.97
2018-04-11T12:32:43.429Z,95863.95
2018-04-11T12:35:13.402Z,95861.12
2018-04-11T12:37:43.522Z,95855.81
2018-04-11T12:40:13.719Z,95860.65
2018-04-11T12:42:42.757Z,95851.64
2018-04-11T12:45:16.882Z,95848.89
2018-04-11T12:47:45.351Z,95846.23
2018-04-11T12:50:13.846Z,95845.88
2018-04-11T12:52:45.499Z,95843.58
2018-04-11T12:55:13.816Z,95838.87
2018-04-11T12:57:42.853Z,95838.70
2018-04-11T13:00:12.828Z,95833.61
2018-04-11T13:02:41.275Z,95839.15
2018-04-11T13:05:09.674Z,95839.37
2018-04-11T13:07:37.971Z,95839.21
2018-04-11T13:10:08.005Z,95830.84
2018-04-11T13:12:36.445Z,95835.09
2018-04-11T13:15:06.551Z,95823.33
2018-04-11T13:17:36.515Z,95825.72
2018-04-11T13:20:07.056Z,95822.66
2018-04-11T13:22:39.508Z,95817.30
2018-04-11T13:25:12.799Z,95819.38
2018-04-11T13:27:41.274Z,95819.75
2018-04-11T13:30:12.234Z,95823.91
2018-04-11T13:32:40.598Z,95806.63
2018-04-11T13:35:08.884Z,95809.14
2018-04-11T13:37:48.946Z,95805.86
2018-04-11T13:40:19.749Z,95796.02
2018-04-11T13:42:48.148Z,95787.44
2018-04-11T13:45:32.853Z,95788.44
2018-04-11T13:48:01.187Z,95790.59
2018-04-11T13:50:29.673Z,95784.03
2018-04-11T13:52:58.054Z,95773.64
2018-04-11T13:55:30.819Z,95767.80
2018-04-11T13:58:09.656Z,95767.91
2018-04-11T14:00:39.598Z,95764.54
2018-04-11T14:03:07.979Z,95768.54
2018-04-11T14:05:38.075Z,95761.30
2018-04-11T14:08:07.202Z,95763.99
2018-04-11T14:10:37.236Z,95764.73
2018-04-11T14:13:09.141Z,95758.17
2018-04-11T14:15:40.000Z,95762.84
2018-04-11T14:20:41.499Z,95754.28
2018-04-11T14:23:09.738Z,95764.64
2018-04-11T14:25:39.885Z,95759.15
2018-04-11T14:28:08.263Z,95766.02
2018-04-11T14:30:37.092Z,95767.05
2018-04-11T14:33:05.421Z,95772.34
2018-04-11T14:35:37.647Z,95760.09
2018-04-11T14:38:07.782Z,95767.19
2018-04-11T14:40:37.127Z,95758.96
2018-04-11T14:43:05.514Z,95754.31
2018-04-11T14:45:39.211Z,95757.69
2018-04-11T14:48:09.429Z,95755.03
2018-04-11T14:50:38.887Z,95744.41
2018-04-11T14:53:10.915Z,95744.72
2018-04-11T14:55:40.010Z,95749.22
2018-04-11T14:58:13.443Z,95750.65
2018-04-11T15:00:43.737Z,95748.28
2018-04-11T15:03:12.226Z,95738.64
2018-04-11T15:05:42.291Z,95750.27
2018-04-11T15:08:15.433Z,95747.87
2018-04-11T15:10:45.564Z,95747.92
2018-04-11T15:13:15.665Z,95740.35
2018-04-11T15:15:43.931Z,95740.16
2018-04-11T15:18:12.437Z,95740.02
2018-04-11T15:20:40.835Z,95734.28
2018-04-11T15:23:10.870Z,95736.91
2018-04-11T15:25:40.563Z,95729.77
2018-04-11T15:28:11.935Z,95735.27
2018-04-11T15:30:46.947Z,95734.77
2018-04-11T15:33:36.723Z,95736.79
2018-04-11T15:36:06.761Z,95720.20
2018-04-11T15:38:36.350Z,95725.97
2018-04-11T15:43:58.778Z,95719.98
2018-04-11T15:46:38.702Z,95711.09
2018-04-11T15:49:09.216Z,95717.50
2018-04-11T15:51:42.018Z,95705.45
2018-04-11T15:54:10.346Z,95708.31
2018-04-11T15:56:41.269Z,95714.23
2018-04-11T15:59:11.358Z,95716.13
2018-04-11T16:01:45.036Z,95720.25
2018-04-11T16:04:15.139Z,95718.97
2018-04-11T16:06:50.468Z,95720.18
2018-04-11T16:09:19.602Z,95714.38
2018-04-11T16:11:47.954Z,95720.55
2018-04-11T16:14:16.437Z,95713.80
2018-04-11T16:16:52.057Z,95713.15
2018-04-11T16:22:04.071Z,95714.05
2018-04-11T16:27:12.930Z,95710.91
2018-04-11T16:29:43.055Z,95708.34
2018-04-11T16:34:46.025Z,95710.29
2018-04-11T16:37:15.170Z,95706.17
2018-04-11T16:39:52.354Z,95711.02
2018-04-11T16:42:22.603Z,95709.59
2018-04-11T16:44:53.469Z,95710.97
2018-04-11T16:47:27.920Z,95720.48
2018-04-11T16:49:57.818Z,95711.34
2018-04-11T16:52:28.800Z,95717.59
2018-04-11T16:54:58.983Z,95719.59
2018-04-11T16:57:27.514Z,95717.68
2018-04-11T17:00:00.633Z,95722.39
2018-04-11T17:02:28.904Z,95725.17
2018-04-11T17:04:57.563Z,95729.55
2018-04-11T17:07:31.617Z,95728.97
2018-04-11T17:10:01.668Z,95726.17
2018-04-11T17:12:31.777Z,95729.00
2018-04-11T17:15:02.773Z,95726.95
2018-04-11T17:17:34.136Z,95726.02
2018-04-11T17:20:04.552Z,95728.94
2018-04-11T17:25:33.977Z,95721.40
2018-04-11T17:28:16.198Z,95711.95
2018-04-11T17:30:59.112Z,95712.38
2018-04-11T17:33:29.119Z,95709.28
2018-04-11T17:35:57.613Z,95712.13
2018-04-11T17:38:26.161Z,95713.24
2018-04-11T17:40:57.195Z,95721.06
2018-04-11T17:43:41.373Z,95714.89
2018-04-11T17:46:09.825Z,95710.52
2018-04-11T17:48:42.835Z,95704.85
2018-04-11T17:51:13.816Z,95704.28
2018-04-11T17:53:46.124Z,95713.51
2018-04-11T17:56:19.531Z,95715.95
2018-04-11T17:58:47.908Z,95709.42
2018-04-11T18:01:17.901Z,95704.19
2018-04-11T18:03:46.307Z,95699.63
2018-04-11T18:06:16.482Z,95700.34
2018-04-11T18:08:47.712Z,95699.69
2018-04-11T18:11:16.168Z,95696.08
2018-04-11T18:13:46.756Z,95700.10
2018-04-11T18:16:19.184Z,95700.23
2018-04-11T18:18:49.220Z,95706.31
2018-04-11T18:21:17.522Z,95706.88
2018-04-11T18:23:46.577Z,95699.81
2018-04-11T18:26:20.391Z,95702.55
2018-04-11T18:28:50.428Z,95705.28
2018-04-11T18:31:20.630Z,95696.13
2018-04-11T18:33:49.109Z,95710.85
2018-04-11T18:36:17.626Z,95704.30
2018-04-11T18:38:46.688Z,95707.47
2018-04-11T18:41:15.077Z,95704.27
2018-04-11T18:43:50.106Z,95704.86
2018-04-11T18:46:21.103Z,95711.01
2018-04-11T18:48:51.145Z,95706.48
2018-04-11T18:51:19.567Z,95705.80
2018-04-11T18:53:48.652Z,95699.55
2018-04-11T18:56:18.060Z,95696.69
2018-04-11T18:58:48.212Z,95690.39
2018-04-11T19:01:18.369Z,95687.52
2018-04-11T19:03:46.933Z,95685.50
2018-04-11T19:06:16.084Z,95683.85
2018-04-11T19:08:46.207Z,95691.15
2018-04-11T19:11:19.423Z,95694.22
2018-04-11T19:13:48.098Z,95690.45
2018-04-11T19:16:19.065Z,95693.91
2018-04-11T19:18:47.631Z,95687.63
2018-04-11T19:21:17.875Z,95688.12
2018-04-11T19:23:49.674Z,95687.32
2018-04-11T19:26:18.175Z,95681.92
2018-04-11T19:28:46.691Z,95679.48
2018-04-11T19:31:16.287Z,95676.98
2018-04-11T19:33:44.783Z,95667.76
2018-04-11T19:36:13.579Z,95663.17
2018-04-11T19:38:44.479Z,95667.92
2018-04-11T19:41:14.590Z,95656.48
2018-04-11T19:43:42.918Z,95655.73
2018-04-11T19:46:15.850Z,95649.05
2018-04-11T19:48:46.343Z,95645.33
2018-04-11T19:51:17.416Z,95641.59
2018-04-11T19:53:48.455Z,95637.50
2018-04-11T19:56:18.632Z,95638.44
2018-04-11T20:01:21.936Z,95630.70
2018-04-11T20:03:52.199Z,95634.63
2018-04-11T20:06:20.775Z,95629.20
2018-04-11T20:08:49.220Z,95627.13
2018-04-11T20:11:17.609Z,95625.09
2018-04-11T20:13:48.990Z,95623.91
2018-04-11T20:16:19.093Z,95625.29
2018-04-11T20:18:47.511Z,95617.72
2018-04-11T20:21:18.585Z,95617.39
2018-04-11T20:23:47.653Z,95617.49
2018-04-11T20:26:17.777Z,95615.03
2018-04-11T20:28:46.868Z,95621.92
2018-04-11T20:31:16.038Z,95617.77
2018-04-11T20:33:45.167Z,95619.11
2018-04-11T20:36:15.148Z,95619.20
2018-04-11T20:38:43.567Z,95609.50
2018-04-11T20:41:13.720Z,95605.30
2018-04-11T20:43:43.735Z,95605.40
2018-04-11T20:46:13.858Z,95596.98
2018-04-11T20:48:44.719Z,95588.97
2018-04-11T20:51:15.030Z,95594.95
2018-04-11T20:53:46.589Z,95586.16
2018-04-11T20:56:16.880Z,95585.32
2018-04-11T20:58:47.933Z,95581.15
2018-04-11T21:01:18.249Z,95582.05
2018-04-11T21:03:46.734Z,95578.70
2018-04-11T21:06:15.141Z,95575.34
2018-04-11T21:08:45.245Z,95572.84
2018-04-11T21:11:13.723Z,95558.02
2018-04-11T21:13:42.057Z,95567.40
2018-04-11T21:16:12.216Z,95564.90
2018-04-11T21:18:42.278Z,95560.27
2018-04-11T21:21:12.529Z,95561.59
2018-04-11T21:23:42.600Z,95561.64
2018-04-11T21:26:12.641Z,95561.73
2018-04-11T21:28:40.921Z,95553.70
2018-04-11T21:31:09.395Z,95554.17
2018-04-11T21:33:39.705Z,95551.62
2018-04-11T21:36:18.033Z,95539.34
2018-04-11T21:38:47.230Z,95544.87
2018-04-11T21:41:20.435Z,95542.41
2018-04-11T21:43:53.478Z,95547.92
2018-04-11T21:46:26.017Z,95552.17
2018-04-11T21:48:56.060Z,95553.92
2018-04-11T21:54:04.856Z,95548.91
2018-04-11T21:56:34.059Z,95529.47
2018-04-11T21:59:03.248Z,95532.91
2018-04-11T22:01:34.205Z,95525.31
2018-04-11T22:04:04.193Z,95525.82
2018-04-11T22:06:32.786Z,95524.12
2018-04-11T22:09:09.593Z,95517.83
2018-04-11T22:11:44.847Z,95512.78
2018-04-11T22:14:13.190Z,95517.49
2018-04-11T22:16:43.373Z,95520.94
2018-04-11T22:19:13.535Z,95517.55
2018-04-11T22:21:44.680Z,95518.85
2018-04-11T22:24:14.645Z,95516.31
2018-04-11T22:26:44.886Z,95524.38
2018-04-11T22:29:14.016Z,95520.55
2018-04-11T22:31:44.307Z,95516.69
2018-04-11T22:34:16.602Z,95505.66
2018-04-11T22:36:46.590Z,95503.95
2018-04-11T22:39:18.780Z,95493.81
2018-04-11T22:41:47.266Z,95495.55
2018-04-11T22:44:17.120Z,95490.50
2018-04-11T22:46:47.170Z,95495.68
2018-04-11T22:49:16.268Z,95496.58
2018-04-11T22:51:47.497Z,95488.13
2018-04-11T22:54:17.629Z,95488.59
2018-04-11T22:56:45.913Z,95486.52
2018-04-11T22:59:15.870Z,95475.94
2018-04-11T23:01:46.049Z,95470.86
2018-04-11T23:04:17.038Z,95479.77
2018-04-11T23:06:45.282Z,95473.87
2018-04-11T23:09:16.212Z,95473.02
2018-04-11T23:11:46.302Z,95471.74
2018-04-11T23:14:14.777Z,95467.89
2018-04-11T23:16:44.892Z,95464.02
2018-04-11T23:19:13.224Z,95457.61
2018-04-11T23:21:42.320Z,95452.09
2018-04-11T23:24:18.317Z,95450.82
2018-04-11T23:26:47.387Z,95444.50
2018-04-11T23:29:15.749Z,95439.88
2018-04-11T23:31:45.852Z,95436.98
2018-04-11T23:34:15.902Z,95437.41
2018-04-11T23:36:46.044Z,95439.11
2018-04-11T23:39:16.837Z,95435.72
2018-04-11T23:41:46.897Z,95434.87
2018-04-11T23:44:15.204Z,95436.52
2018-04-11T23:46:45.240Z,95436.48
2018-04-11T23:49:19.395Z,95428.83
2018-04-11T23:51:49.427Z,95422.89
2018-04-11T23:54:19.553Z,95417.38
2018-04-11T23:56:49.565Z,95419.54
2018-04-11T23:59:18.662Z,95426.34
